Time;durP1;ratioP1;P1;durP2;ratioP2;P2;SDS_P1;SDS_P2;PMS_P1;PMS_P2;Temp;Humidity;BMP_temperature;BMP_pressure;BME280_temperature;BME280_humidity;BME280_pressure;Samples;Min_cycle;Max_cycle;Signal;HPM_P1;HPM_P2
2023/04/06 00:01:10;;;;;;;;;;;8.00;44.90;;;6.50;48.01;101783.28;12247057;19;20264;-87
2023/04/06 00:05:12;;;;;;;;;;;8.00;44.90;;;6.49;48.25;101773.78;12247297;19;19919;-87
2023/04/06 00:09:14;;;;;;;;;;;7.90;44.90;;;6.52;48.11;101787.53;12241841;19;19907;-88
2023/04/06 00:13:15;;;;;;;;;;;7.90;44.90;;;6.38;48.11;101772.28;12241945;19;19949;-87
2023/04/06 00:17:17;;;;;;;;;;;7.90;44.90;;;6.13;48.09;101739.94;12246452;19;19919;-87
2023/04/06 00:21:19;;;;;;;;;;;7.90;44.90;;;6.31;48.10;101764.63;12241790;19;19918;-87
2023/04/06 00:25:21;;;;;;;;;;;7.90;44.90;;;6.26;48.12;101764.72;12246088;19;20356;-87
2023/04/06 00:29:22;;;;;;;;;;;7.80;44.90;;;6.26;48.28;101769.06;12242129;19;19934;-87
2023/04/06 00:33:24;;;;;;;;;;;7.80;45.00;;;6.13;48.27;101751.19;12244360;19;20329;-87
2023/04/06 00:37:26;;;;;;;;;;;7.70;44.90;;;6.04;48.14;101755.69;12244497;19;20261;-87
2023/04/06 00:41:28;;;;;;;;;;;7.60;44.90;;;6.01;48.30;101750.56;12245649;19;19923;-87
2023/04/06 00:45:30;;;;;;;;;;;7.60;44.90;;;5.89;48.23;101741.25;12244899;19;19933;-87
2023/04/06 00:49:33;;;;;;;;;;;7.50;45.00;;;5.99;48.37;101763.53;12236914;19;19915;-87
2023/04/06 00:53:34;;;;;;;;;;;7.40;45.00;;;6.01;48.42;101772.16;12244807;19;19915;-87
2023/04/06 00:57:37;;;;;;;;;;;7.40;45.10;;;5.83;48.27;101744.78;12244476;19;19922;-87
2023/04/06 01:01:39;;;;;;;;;;;7.40;45.10;;;5.95;48.16;101770.53;12255381;19;20442;-87
2023/04/06 01:05:58;;;;;;;;;;;7.40;45.10;;;5.76;48.24;101731.13;12253322;19;20254;-87
2023/04/06 01:10:06;;;;;;;;;;;7.40;45.10;;;5.92;48.40;101767.13;12251101;19;20317;-87
2023/04/06 01:14:09;;;;;;;;;;;7.40;45.10;;;5.62;48.38;101714.97;12255532;19;19948;-87
2023/04/06 01:18:28;;;;;;;;;;;7.30;45.10;;;5.70;48.35;101740.75;12252882;19;19918;-87
2023/04/06 01:22:41;;;;;;;;;;;7.30;45.10;;;5.79;48.41;101755.28;12254698;19;19942;-87
2023/04/06 01:26:44;;;;;;;;;;;7.30;45.10;;;5.68;48.37;101738.19;12254060;19;19939;-87
2023/04/06 01:30:47;;;;;;;;;;;7.20;45.20;;;5.67;48.51;101746.84;12254374;19;19915;-87
2023/04/06 01:35:00;;;;;;;;;;;7.20;45.20;;;5.73;48.46;101759.69;12253108;19;19927;-87
2023/04/06 01:39:04;;;;;;;;;;;7.20;45.20;;;5.68;48.30;101756.31;12250377;19;19934;-87
2023/04/06 01:43:10;;;;;;;;;;;7.20;45.30;;;5.38;48.51;101707.66;12251845;19;19915;-87
2023/04/06 01:47:25;;;;;;;;;;;7.20;45.30;;;5.53;48.38;101733.28;12251198;19;19918;-87
2023/04/06 01:51:27;;;;;;;;;;;7.10;45.20;;;5.54;48.48;101741.03;12250898;19;20539;-87
2023/04/06 01:55:35;;;;;;;;;;;7.10;45.30;;;5.48;48.38;101735.09;12248125;19;19922;-87
2023/04/06 01:59:54;;;;;;;;;;;7.10;45.40;;;5.60;48.36;101763.38;12248721;19;19924;-87
2023/04/06 02:04:15;;;;;;;;;;;7.10;45.40;;;5.58;48.54;101757.38;12252154;19;19918;-87
2023/04/06 02:08:18;;;;;;;;;;;7.00;45.40;;;5.48;48.50;101746.31;12247271;19;19923;-87
2023/04/06 02:12:21;;;;;;;;;;;7.00;45.30;;;5.57;48.56;101765.19;12248938;19;19918;-87
2023/04/06 02:16:23;;;;;;;;;;;7.00;45.40;;;5.40;48.38;101739.53;12251480;19;19934;-87
2023/04/06 02:20:25;;;;;;;;;;;7.00;45.40;;;5.55;48.43;101770.38;12251992;19;19911;-87
2023/04/06 02:24:27;;;;;;;;;;;7.00;45.50;;;5.21;48.56;101706.22;12254032;19;20284;-87
2023/04/06 02:28:28;;;;;;;;;;;7.00;45.40;;;5.22;48.60;101714.84;12249271;19;19915;-87
2023/04/06 02:32:30;;;;;;;;;;;7.00;45.40;;;5.45;48.48;101751.53;12249572;19;19975;-87
2023/04/06 02:36:32;;;;;;;;;;;7.00;45.50;;;5.47;48.64;101756.69;12250578;19;19930;-87
2023/04/06 02:40:34;;;;;;;;;;;7.00;45.50;;;5.49;48.57;101752.34;12249423;19;19911;-87
2023/04/06 02:44:46;;;;;;;;;;;7.00;45.50;;;5.15;48.52;101708.88;12251724;19;19982;-87
2023/04/06 02:48:48;;;;;;;;;;;7.00;45.50;;;5.47;48.53;101759.28;12247273;19;20257;-87
2023/04/06 02:52:52;;;;;;;;;;;7.00;45.50;;;5.36;48.77;101740.50;12249552;19;19915;-87
2023/04/06 02:56:53;;;;;;;;;;;7.00;45.50;;;5.36;48.69;101740.50;12247456;19;19918;-87
2023/04/06 03:00:56;;;;;;;;;;;7.00;45.50;;;5.47;48.75;101756.69;12249064;19;19923;-87
2023/04/06 03:04:58;;;;;;;;;;;7.00;45.50;;;5.33;48.78;101739.66;12251091;19;20312;-87
2023/04/06 03:09:06;;;;;;;;;;;7.00;45.50;;;5.40;48.64;101742.13;12245069;19;20250;-87
2023/04/06 03:13:08;;;;;;;;;;;7.00;45.60;;;5.40;48.80;101755.09;12246734;19;19940;-87
2023/04/06 03:17:29;;;;;;;;;;;6.90;45.50;;;5.45;48.70;101763.63;12248747;19;20252;-87
2023/04/06 03:21:35;;;;;;;;;;;7.00;45.60;;;5.10;48.69;101703.81;12248014;19;19927;-87
2023/04/06 03:25:39;;;;;;;;;;;6.90;45.50;;;5.37;48.84;101763.75;12247615;19;19930;-87
2023/04/06 03:29:43;;;;;;;;;;;6.90;45.50;;;5.29;48.86;101758.72;12245122;19;20325;-87
2023/04/06 03:33:49;;;;;;;;;;;6.90;45.50;;;5.13;48.63;101746.91;12248950;19;19926;-87
2023/04/06 03:37:57;;;;;;;;;;;6.90;45.40;;;5.20;48.81;101766.63;12245345;19;19923;-87
2023/04/06 03:42:00;;;;;;;;;;;6.80;45.30;;;5.22;48.73;101783.00;12246163;19;19910;-87
2023/04/06 03:46:08;;;;;;;;;;;6.70;45.30;;;5.05;48.90;101762.56;12246357;19;19919;-87
2023/04/06 03:50:10;;;;;;;;;;;6.70;45.30;;;5.16;48.87;101795.19;12243382;19;19923;-87
2023/04/06 03:54:12;;;;;;;;;;;6.70;45.40;;;4.98;48.93;101763.53;12245293;19;19940;-87
2023/04/06 03:58:13;;;;;;;;;;;6.70;45.40;;;5.04;48.68;101786.72;12243400;19;19919;-87
2023/04/06 04:02:15;;;;;;;;;;;6.60;45.40;;;4.92;48.87;101775.72;12246374;19;19922;-87
2023/04/06 04:06:17;;;;;;;;;;;6.60;45.40;;;4.87;48.78;101776.63;12241145;19;19923;-87
2023/04/06 04:10:19;;;;;;;;;;;6.60;45.40;;;4.92;48.91;101802.44;12244022;19;19927;-87
2023/04/06 04:14:21;;;;;;;;;;;6.50;45.40;;;4.92;48.68;101801.59;12242908;19;19915;-87
2023/04/06 04:18:24;;;;;;;;;;;6.40;45.30;;;4.84;48.77;101799.13;12244379;19;19915;-88
2023/04/06 04:22:27;;;;;;;;;;;6.40;45.30;;;4.84;48.79;101812.06;12246708;19;19951;-87
2023/04/06 04:26:28;;;;;;;;;;;6.40;45.40;;;4.71;48.97;101792.41;12245208;19;19914;-87
2023/04/06 04:30:30;;;;;;;;;;;6.30;45.40;;;4.71;48.92;101797.56;12245008;19;20837;-87
2023/04/06 04:34:32;;;;;;;;;;;6.30;45.40;;;4.69;48.95;101810.53;12248447;19;19923;-87
2023/04/06 04:38:34;;;;;;;;;;;6.20;45.30;;;4.56;48.79;101790.84;12254700;19;20496;-87
2023/04/06 04:42:37;;;;;;;;;;;6.20;45.40;;;4.67;48.81;101814.84;12259481;19;19925;-87
2023/04/06 04:46:41;;;;;;;;;;;6.20;45.40;;;4.34;48.92;101762.69;12257396;19;19935;-87
2023/04/06 04:50:44;;;;;;;;;;;6.10;45.40;;;4.30;48.99;101749.84;12256171;19;19925;-87
2023/04/06 04:54:46;;;;;;;;;;;6.10;45.40;;;4.54;48.93;101801.25;12259916;19;19944;-87
2023/04/06 04:58:56;;;;;;;;;;;6.10;45.40;;;4.40;48.91;101785.91;12254564;19;19992;-87
2023/04/06 05:02:59;;;;;;;;;;;6.10;45.40;;;4.37;48.93;101788.50;12260141;19;19919;-87
2023/04/06 05:07:08;;;;;;;;;;;6.00;45.30;;;4.37;48.72;101798.84;12258123;19;19922;-87
2023/04/06 05:11:11;;;;;;;;;;;6.00;45.30;;;4.40;48.68;101814.34;12254765;19;19919;-87
2023/04/06 05:15:18;;;;;;;;;;;6.00;45.30;;;4.36;48.63;101828.19;12255355;19;19915;-87
2023/04/06 05:19:21;;;;;;;;;;;5.90;45.30;;;4.31;48.94;101826.53;12247789;19;19919;-87
2023/04/06 05:23:22;;;;;;;;;;;5.90;45.20;;;4.31;48.87;101823.94;12252848;19;19931;-87
2023/04/06 05:27:26;;;;;;;;;;;5.80;45.20;;;4.28;48.89;101832.56;12251356;19;19922;-87
2023/04/06 05:31:29;;;;;;;;;;;5.80;45.30;;;4.23;49.00;101816.25;12250294;19;19934;-87
2023/04/06 05:35:31;;;;;;;;;;;5.80;45.40;;;4.25;49.05;101822.28;12252286;19;19926;-87
2023/04/06 05:39:37;;;;;;;;;;;5.80;45.50;;;4.24;49.16;101815.41;12246443;19;20348;-87
2023/04/06 05:43:38;;;;;;;;;;;5.80;45.50;;;4.30;48.80;101838.59;12246304;19;19927;-87
2023/04/06 05:47:40;;;;;;;;;;;5.80;45.50;;;4.15;48.86;101818.06;12244972;19;20368;-87
2023/04/06 05:51:53;;;;;;;;;;;5.80;45.50;;;4.15;48.98;101820.66;12247211;19;19927;-87
2023/04/06 05:55:55;;;;;;;;;;;5.80;45.40;;;4.08;48.84;101816.41;12248385;19;19970;-87
2023/04/06 05:59:57;;;;;;;;;;;5.80;45.40;;;4.12;48.93;101834.47;12245345;19;19922;-87
2023/04/06 06:04:03;;;;;;;;;;;5.70;45.50;;;4.02;49.17;101824.25;12250342;19;19911;-87
2023/04/06 06:08:07;;;;;;;;;;;5.70;45.50;;;4.01;49.04;101822.53;12247245;19;20552;-87
2023/04/06 06:12:10;;;;;;;;;;;5.70;45.70;;;4.15;49.31;101838.75;12242408;19;19932;-86
2023/04/06 06:16:11;;;;;;;;;;;5.70;45.90;;;4.20;49.36;101840.41;12247525;19;19914;-86
2023/04/06 06:20:18;;;;;;;;;;;5.80;46.00;;;4.31;49.42;101839.44;12248386;19;19926;-85
2023/04/06 06:24:21;;;;;;;;;;;5.80;46.20;;;4.38;49.43;101833.34;12251740;19;19935;-85
2023/04/06 06:28:23;;;;;;;;;;;5.90;46.40;;;4.52;49.42;101828.00;12249377;19;19914;-85
2023/04/06 06:32:26;;;;;;;;;;;6.10;46.70;;;4.71;49.39;101839.81;12247439;19;19926;-85
2023/04/06 06:36:30;;;;;;;;;;;6.20;46.60;;;4.84;49.60;101837.94;12251593;19;19922;-85
2023/04/06 06:40:35;;;;;;;;;;;6.40;46.70;;;4.98;49.62;101837.75;12250614;19;19927;-86
2023/04/06 06:44:37;;;;;;;;;;;6.50;46.80;;;4.82;49.50;101788.78;12252883;19;19911;-85
2023/04/06 06:48:39;;;;;;;;;;;6.70;46.90;;;5.22;49.55;101833.94;12248427;19;19963;-86
2023/04/06 06:52:41;;;;;;;;;;;6.80;46.80;;;5.33;49.54;101843.25;12247587;19;19915;-86
2023/04/06 06:56:43;;;;;;;;;;;6.90;46.70;;;5.37;49.75;101831.09;12246018;19;19914;-86
2023/04/06 07:00:46;;;;;;;;;;;7.10;46.70;;;5.48;49.65;101828.34;12246973;19;19926;-87
2023/04/06 07:04:49;;;;;;;;;;;7.20;46.80;;;5.72;49.84;101845.22;12251434;19;19923;-87
2023/04/06 07:08:51;;;;;;;;;;;7.30;46.80;;;5.69;49.78;101812.44;12248521;19;20246;-88
2023/04/06 07:12:53;;;;;;;;;;;7.50;47.00;;;5.93;49.60;101823.25;12248700;19;19920;-86
2023/04/06 07:16:55;;;;;;;;;;;7.60;46.70;;;5.82;49.60;101789.75;12222106;19;20345;-87
2023/04/06 07:20:56;;;;;;;;;;;7.80;46.60;;;6.26;49.59;101839.94;12244031;19;19930;-87
2023/04/06 07:24:58;;;;;;;;;;;7.90;46.50;;;6.28;49.82;101816.59;12242645;19;19941;-87
2023/04/06 07:29:00;;;;;;;;;;;8.00;46.60;;;6.51;49.80;101831.66;12243415;19;19930;-86
2023/04/06 07:33:02;;;;;;;;;;;8.10;46.40;;;6.57;49.88;101813.41;12238899;19;19919;-86
2023/04/06 07:37:05;;;;;;;;;;;8.30;46.50;;;6.87;49.80;101832.66;12244196;19;19936;-86
2023/04/06 07:41:08;;;;;;;;;;;8.50;46.50;;;7.04;49.81;101825.31;12239214;19;19915;-86
2023/04/06 07:45:10;;;;;;;;;;;8.70;46.50;;;7.19;50.04;101813.75;12241677;19;19927;-87
2023/04/06 07:49:12;;;;;;;;;;;8.90;46.40;;;7.40;50.11;101820.19;12239304;19;20341;-88
2023/04/06 07:53:14;;;;;;;;;;;9.10;46.40;;;7.53;50.10;101805.13;12237376;19;19919;-87
2023/04/06 07:57:15;;;;;;;;;;;9.30;46.40;;;7.93;50.16;101830.94;12240970;19;20278;-87
2023/04/06 08:01:17;;;;;;;;;;;9.60;46.40;;;7.93;50.33;101793.69;12241555;19;19919;-87
2023/04/06 08:05:18;;;;;;;;;;;9.80;45.50;;;8.29;50.23;101812.66;12239763;19;19911;-87
2023/04/06 08:09:20;;;;;;;;;;;10.10;45.60;;;8.63;50.08;101835.97;12244760;19;19911;-87
2023/04/06 08:13:21;;;;;;;;;;;10.30;44.50;;;8.73;50.10;101807.91;12246148;19;19915;-88
2023/04/06 08:17:23;;;;;;;;;;;10.60;45.20;;;8.95;49.84;101810.72;12249555;19;19926;-88
2023/04/06 08:21:24;;;;;;;;;;;10.70;44.00;;;9.27;49.84;101835.78;12253942;19;19925;-88
2023/04/06 08:25:26;;;;;;;;;;;10.90;44.40;;;9.34;49.87;101809.50;12252982;19;19941;-88
2023/04/06 08:29:28;;;;;;;;;;;11.10;44.60;;;9.42;49.87;101797.06;12251426;19;19938;-89
2023/04/06 08:33:30;;;;;;;;;;;11.30;44.60;;;9.74;49.92;101809.88;12248900;19;19951;-88
2023/04/06 08:37:32;;;;;;;;;;;11.50;44.60;;;9.97;49.92;101811.69;12248447;19;19943;-89
2023/04/06 08:41:34;;;;;;;;;;;11.70;44.10;;;10.20;49.88;101820.44;12253364;19;20280;-89
2023/04/06 08:45:36;;;;;;;;;;;11.90;44.30;;;10.38;49.87;101824.19;12255710;19;19946;-89
2023/04/06 08:49:38;;;;;;;;;;;12.10;44.00;;;10.49;49.75;101816.81;12251609;19;20329;-89
2023/04/06 08:53:40;;;;;;;;;;;12.30;43.70;;;10.63;49.57;101814.53;12251998;19;19926;-89
2023/04/06 08:57:42;;;;;;;;;;;12.40;43.50;;;10.80;49.69;101824.34;12247965;19;19956;-88
2023/04/06 09:01:45;;;;;;;;;;;12.60;43.90;;;10.89;49.50;101815.28;12252559;19;20256;-89
2023/04/06 09:05:47;;;;;;;;;;;12.60;42.90;;;11.02;49.47;101815.69;12252902;19;19926;-89
2023/04/06 09:09:48;;;;;;;;;;;12.80;42.80;;;11.14;49.62;101794.25;12249047;19;19918;-89
2023/04/06 09:13:54;;;;;;;;;;;13.00;43.70;;;11.35;49.66;101808.22;12253561;19;19926;-89
2023/04/06 09:17:56;;;;;;;;;;;13.10;41.20;;;11.47;49.39;101796.41;12247635;19;20364;-89
2023/04/06 09:22:07;;;;;;;;;;;13.30;43.30;;;11.49;49.61;101764.03;12255284;19;19922;-89
2023/04/06 09:26:16;;;;;;;;;;;13.50;42.20;;;11.84;49.42;101800.09;12256019;19;19926;-88
2023/04/06 09:30:18;;;;;;;;;;;13.60;42.80;;;11.88;49.32;101781.59;12254497;19;19906;-88
2023/04/06 09:34:23;;;;;;;;;;;13.70;40.50;;;12.02;49.02;101798.47;12253359;19;19978;-89
2023/04/06 09:38:24;;;;;;;;;;;13.80;42.40;;;12.02;49.01;101796.69;12253689;19;20267;-88
2023/04/06 09:42:26;;;;;;;;;;;13.90;43.10;;;12.05;48.93;101803.56;12255632;19;19923;-88
2023/04/06 09:46:30;;;;;;;;;;;13.80;42.60;;;11.98;49.00;101787.25;12258771;19;20369;-88
2023/04/06 09:50:33;;;;;;;;;;;13.90;42.80;;;12.03;48.83;101780.06;12248112;19;19930;-89
2023/04/06 09:54:34;;;;;;;;;;;13.80;43.00;;;12.20;48.81;101802.88;12242578;19;20377;-88
2023/04/06 09:58:37;;;;;;;;;;;13.90;41.10;;;12.29;48.82;101797.25;12241344;19;20396;-89
2023/04/06 10:02:46;;;;;;;;;;;14.00;40.70;;;12.37;48.75;101789.03;12247670;19;19918;-89
2023/04/06 10:06:52;;;;;;;;;;;14.00;42.20;;;12.31;48.67;101766.59;12250000;19;19923;-89
2023/04/06 10:10:55;;;;;;;;;;;14.10;42.10;;;12.53;48.64;101771.69;12254264;19;19919;-88
2023/04/06 10:14:57;;;;;;;;;;;14.20;42.80;;;12.73;48.75;101785.63;12252094;19;19919;-89
2023/04/06 10:19:15;;;;;;;;;;;14.40;42.70;;;12.62;48.73;101749.44;12246980;19;20329;-89
2023/04/06 10:23:37;;;;;;;;;;;14.50;36.90;;;13.02;48.53;101786.84;12249981;19;19922;-89
2023/04/06 10:27:38;;;;;;;;;;;14.60;39.30;;;13.11;48.40;101781.16;12251427;19;19950;-88
2023/04/06 10:31:43;;;;;;;;;;;14.70;41.50;;;13.21;48.37;101777.16;12246221;19;19985;-88
2023/04/06 10:35:45;;;;;;;;;;;14.80;40.90;;;13.16;48.09;101747.69;12251980;19;19933;-88
2023/04/06 10:39:58;;;;;;;;;;;14.90;41.30;;;13.22;48.02;101757.88;12247713;19;19915;-89
2023/04/06 10:44:01;;;;;;;;;;;15.00;38.60;;;13.30;47.66;101764.53;12250383;19;19919;-88
2023/04/06 10:48:13;;;;;;;;;;;15.10;41.10;;;13.36;47.80;101758.97;12251829;19;20002;-89
2023/04/06 10:52:15;;;;;;;;;;;15.10;37.90;;;13.47;47.60;101759.28;12247772;19;20365;-87
2023/04/06 10:56:20;;;;;;;;;;;15.10;39.20;;;13.48;47.67;101764.47;12252444;19;19926;-87
2023/04/06 11:00:23;;;;;;;;;;;15.10;40.50;;;13.45;47.47;101769.03;12251514;19;19918;-88
2023/04/06 11:04:24;;;;;;;;;;;15.10;40.40;;;13.46;47.24;101775.97;12249295;19;19938;-88
2023/04/06 11:08:33;;;;;;;;;;;15.10;40.30;;;13.33;47.26;101754.75;12247127;19;19930;-88
2023/04/06 11:12:35;;;;;;;;;;;15.10;39.50;;;13.28;47.32;101754.13;12244527;19;19918;-88
2023/04/06 11:16:37;;;;;;;;;;;14.80;41.00;;;13.32;47.17;101752.22;12245525;19;20014;-89
2023/04/06 11:20:40;;;;;;;;;;;14.90;40.20;;;13.23;47.33;101746.47;12247648;19;19932;-88
2023/04/06 11:24:41;;;;;;;;;;;14.90;39.80;;;13.30;46.99;101760.16;12250207;19;19922;-88
2023/04/06 11:28:43;;;;;;;;;;;14.90;39.60;;;13.25;47.09;101760.34;12245289;19;19967;-88
2023/04/06 11:32:45;;;;;;;;;;;14.80;40.20;;;13.15;47.04;101745.13;12244568;19;19931;-89
2023/04/06 11:36:49;;;;;;;;;;;14.80;38.60;;;13.19;46.91;101751.94;12246313;19;20313;-88
2023/04/06 11:40:54;;;;;;;;;;;14.70;40.10;;;13.15;47.02;101746.00;12246732;19;19914;-88
2023/04/06 11:44:57;;;;;;;;;;;14.70;40.50;;;12.95;47.01;101710.25;12246021;19;19915;-89
2023/04/06 11:49:00;;;;;;;;;;;14.70;40.70;;;13.07;46.79;101735.88;12245129;19;19943;-89
2023/04/06 11:53:02;;;;;;;;;;;14.60;41.20;;;13.14;46.91;101733.78;12242620;19;20346;-88
2023/04/06 11:57:05;;;;;;;;;;;14.70;41.40;;;13.18;46.62;101742.38;12247818;19;19921;-88
2023/04/06 12:01:06;;;;;;;;;;;14.70;41.80;;;12.83;46.81;101685.50;12152067;19;19918;-86
2023/04/06 12:05:08;;;;;;;;;;;14.60;41.20;;;13.13;46.64;101733.88;12237345;19;19944;-87
2023/04/06 12:09:10;;;;;;;;;;;14.60;41.20;;;13.09;46.66;101724.47;12247621;19;19918;-86
2023/04/06 12:13:11;;;;;;;;;;;14.60;40.00;;;12.88;46.61;101685.28;12243044;19;20351;-86
2023/04/06 12:17:13;;;;;;;;;;;14.60;39.90;;;12.88;46.75;101676.53;12246973;19;19982;-85
2023/04/06 12:21:14;;;;;;;;;;;14.60;39.10;;;13.19;46.64;101718.69;12244731;19;20332;-84
2023/04/06 12:25:16;;;;;;;;;;;14.60;40.40;;;13.20;46.71;101701.16;12248386;19;19947;-85
2023/04/06 12:29:17;;;;;;;;;;;14.70;39.60;;;13.21;46.54;101701.09;12247440;19;19915;-86
2023/04/06 12:33:19;;;;;;;;;;;14.90;41.30;;;13.13;46.49;101684.06;12240720;19;20418;-85
2023/04/06 12:37:21;;;;;;;;;;;14.80;41.20;;;13.11;46.37;101675.41;12250241;19;19919;-85
2023/04/06 12:41:22;;;;;;;;;;;14.80;40.80;;;13.40;46.41;101718.56;12242187;19;20327;-86
2023/04/06 12:45:24;;;;;;;;;;;14.80;40.20;;;13.38;46.39;101720.41;12243077;19;19918;-85
2023/04/06 12:49:26;;;;;;;;;;;14.80;40.00;;;13.31;46.31;101712.00;12243205;19;19927;-85
2023/04/06 12:53:27;;;;;;;;;;;14.80;40.00;;;13.24;46.37;101695.69;12239985;19;19919;-85
2023/04/06 12:57:30;;;;;;;;;;;14.80;39.70;;;13.21;46.38;101687.13;12251752;19;19950;-85
2023/04/06 13:01:32;;;;;;;;;;;14.70;39.50;;;13.25;46.26;101694.75;12254695;19;19919;-86
2023/04/06 13:05:34;;;;;;;;;;;14.70;40.50;;;13.31;46.38;101698.03;12255106;19;19933;-86
2023/04/06 13:09:35;;;;;;;;;;;14.70;37.00;;;13.41;46.07;101688.75;12253200;19;20268;-87
2023/04/06 13:13:37;;;;;;;;;;;14.70;39.90;;;13.36;46.18;101686.38;12253951;19;20531;-86
2023/04/06 13:17:39;;;;;;;;;;;14.80;40.40;;;13.21;45.95;101653.88;12253939;19;20270;-86
2023/04/06 13:21:40;;;;;;;;;;;14.90;39.90;;;13.36;46.00;101660.13;12252146;19;19938;-85
2023/04/06 13:25:42;;;;;;;;;;;14.80;40.60;;;13.49;45.88;101676.94;12246401;19;19944;-86
2023/04/06 13:29:43;;;;;;;;;;;14.90;35.10;;;13.49;45.81;101665.59;12255089;19;19938;-85
2023/04/06 13:33:45;;;;;;;;;;;14.90;39.10;;;13.52;45.76;101654.94;12251543;19;19926;-85
2023/04/06 13:37:48;;;;;;;;;;;14.90;40.10;;;13.60;46.07;101668.50;12254342;19;19998;-85
2023/04/06 13:41:49;;;;;;;;;;;15.00;36.80;;;13.35;45.55;101615.63;12251290;19;20491;-85
2023/04/06 13:45:54;;;;;;;;;;;15.00;35.30;;;13.68;45.64;101666.31;12256604;19;19923;-86
2023/04/06 13:49:56;;;;;;;;;;;15.00;35.70;;;13.54;45.59;101631.25;12254462;19;20265;-85
2023/04/06 13:53:57;;;;;;;;;;;15.10;38.80;;;13.79;45.56;101657.88;12257627;19;19923;-85
2023/04/06 13:57:59;;;;;;;;;;;15.10;39.20;;;13.68;45.48;101633.97;12255519;19;19922;-85
2023/04/06 14:02:05;;;;;;;;;;;15.20;38.20;;;13.76;45.51;101630.94;12254605;19;19930;-85
2023/04/06 14:06:13;;;;;;;;;;;15.20;39.00;;;13.64;45.49;101622.81;12253645;19;19911;-85
2023/04/06 14:10:15;;;;;;;;;;;15.30;39.80;;;13.81;45.40;101650.75;12254608;19;19934;-86
2023/04/06 14:14:17;;;;;;;;;;;15.30;39.20;;;13.79;45.19;101641.28;12255340;19;19919;-85
2023/04/06 14:18:18;;;;;;;;;;;15.30;39.60;;;13.75;45.13;101635.34;12256456;19;20246;-86
2023/04/06 14:22:20;;;;;;;;;;;15.20;34.90;;;13.82;45.02;101648.97;12254210;19;19919;-85
2023/04/06 14:26:22;;;;;;;;;;;15.20;39.10;;;13.83;44.96;101651.53;12255938;19;19930;-86
2023/04/06 14:30:23;;;;;;;;;;;15.20;40.40;;;13.87;45.01;101654.84;12254953;19;19925;-85
2023/04/06 14:34:26;;;;;;;;;;;15.20;39.30;;;13.80;45.17;101632.47;12255948;19;19921;-85
2023/04/06 14:38:27;;;;;;;;;;;15.20;38.00;;;13.73;45.05;101624.91;12255845;19;19956;-85
2023/04/06 14:42:29;;;;;;;;;;;15.30;39.00;;;13.69;44.94;101628.66;12251066;19;19931;-85
2023/04/06 14:46:34;;;;;;;;;;;15.20;38.50;;;13.76;45.03;101638.81;12250479;19;21359;-85
2023/04/06 14:50:36;;;;;;;;;;;15.20;38.80;;;13.87;45.01;101645.16;12252123;19;19926;-85
2023/04/06 14:54:37;;;;;;;;;;;15.20;39.30;;;13.68;44.86;101624.31;12255202;19;19937;-85
2023/04/06 14:58:38;;;;;;;;;;;15.20;39.50;;;13.86;44.84;101637.41;12253996;19;19911;-85
2023/04/06 15:02:42;;;;;;;;;;;15.30;40.00;;;13.88;44.83;101644.25;12244376;19;19923;-85
2023/04/06 15:06:44;;;;;;;;;;;15.20;40.00;;;13.81;44.73;101628.91;12252138;19;19922;-85
2023/04/06 15:10:45;;;;;;;;;;;15.20;40.00;;;13.67;44.68;101599.00;12250168;19;19922;-85
2023/04/06 15:14:47;;;;;;;;;;;15.30;38.80;;;13.82;44.74;101627.97;12251880;19;19915;-86
2023/04/06 15:18:48;;;;;;;;;;;15.20;38.80;;;13.81;44.76;101623.66;12252974;19;20327;-86
2023/04/06 15:22:50;;;;;;;;;;;15.20;38.00;;;13.77;44.69;101615.13;12250136;19;19943;-85
2023/04/06 15:26:51;;;;;;;;;;;15.20;38.70;;;13.78;44.63;101618.59;12249848;19;20252;-85
2023/04/06 15:30:53;;;;;;;;;;;15.20;36.60;;;13.86;44.60;101626.91;12247698;19;19918;-85
2023/04/06 15:34:58;;;;;;;;;;;15.20;37.20;;;13.76;44.47;101620.44;12249361;19;20594;-85
2023/04/06 15:39:00;;;;;;;;;;;15.10;36.90;;;13.58;44.36;101594.25;12247668;19;20241;-85
2023/04/06 15:43:02;;;;;;;;;;;15.10;37.50;;;13.77;44.34;101633.50;12244942;19;19926;-86
2023/04/06 15:47:03;;;;;;;;;;;15.10;38.20;;;13.73;44.49;101624.91;12249837;19;19911;-86
2023/04/06 15:51:05;;;;;;;;;;;15.10;38.80;;;13.78;44.53;101632.56;12242614;19;19982;-85
2023/04/06 15:55:07;;;;;;;;;;;15.10;39.10;;;13.76;44.43;101615.19;12235881;19;19919;-85
2023/04/06 15:59:09;;;;;;;;;;;15.10;39.20;;;13.69;44.34;101599.78;12240196;19;19923;-85
2023/04/06 16:03:10;;;;;;;;;;;15.10;39.50;;;13.73;44.34;101606.53;12247043;19;19918;-85
2023/04/06 16:07:11;;;;;;;;;;;15.10;39.30;;;13.67;44.43;101606.88;12247101;19;19957;-85
2023/04/06 16:11:13;;;;;;;;;;;15.10;38.90;;;13.79;44.25;101625.53;12245246;19;19919;-85
2023/04/06 16:15:14;;;;;;;;;;;15.10;39.40;;;13.73;44.33;101616.22;12245371;19;19939;-86
2023/04/06 16:19:16;;;;;;;;;;;15.10;39.80;;;13.71;44.16;101616.28;12244207;19;19914;-85
2023/04/06 16:23:17;;;;;;;;;;;15.10;39.20;;;13.77;44.20;101625.63;12230810;19;20329;-84
2023/04/06 16:27:19;;;;;;;;;;;15.10;38.10;;;13.59;44.21;101603.81;12246081;19;20339;-85
2023/04/06 16:31:22;;;;;;;;;;;15.10;39.40;;;13.75;44.17;101634.50;12250098;19;20022;-86
2023/04/06 16:35:25;;;;;;;;;;;15.00;38.10;;;13.66;44.20;101628.81;12256539;19;19915;-85
2023/04/06 16:39:26;;;;;;;;;;;15.00;39.00;;;13.60;44.16;101621.25;12255795;19;20343;-86
2023/04/06 16:43:28;;;;;;;;;;;15.00;39.20;;;13.48;44.01;101608.81;12252805;19;19930;-86
2023/04/06 16:47:29;;;;;;;;;;;15.00;39.00;;;13.62;44.07;101635.16;12257166;19;20004;-86
2023/04/06 16:51:31;;;;;;;;;;;15.00;39.30;;;13.52;44.08;101627.84;12252958;19;19926;-86
2023/04/06 16:55:32;;;;;;;;;;;15.00;39.80;;;13.32;43.93;101597.44;12248046;19;19919;-86
2023/04/06 16:59:34;;;;;;;;;;;14.90;39.70;;;13.51;44.14;101637.50;12251672;19;19915;-86
2023/04/06 17:03:35;;;;;;;;;;;14.80;39.50;;;13.41;44.01;101612.69;12256396;19;19939;-84
2023/04/06 17:07:36;;;;;;;;;;;14.80;39.80;;;13.41;43.95;101625.78;12257557;19;19922;-85
2023/04/06 17:11:38;;;;;;;;;;;14.70;39.90;;;13.20;43.95;101604.97;12255604;19;19935;-85
2023/04/06 17:15:41;;;;;;;;;;;14.70;38.50;;;13.23;43.85;101630.19;12254675;19;19919;-84
2023/04/06 17:19:43;;;;;;;;;;;14.60;39.30;;;13.10;43.89;101618.66;12254222;19;20332;-83
2023/04/06 17:23:45;;;;;;;;;;;14.50;40.00;;;13.17;43.78;101639.22;12257569;19;19923;-84
2023/04/06 17:27:47;;;;;;;;;;;14.40;39.80;;;12.99;43.84;101630.53;12256322;19;20336;-85
2023/04/06 17:31:48;;;;;;;;;;;14.40;39.50;;;12.90;43.82;101627.53;12252413;19;19914;-84
2023/04/06 17:35:50;;;;;;;;;;;14.30;39.00;;;12.74;43.75;101620.41;12257559;19;19918;-85
2023/04/06 17:39:52;;;;;;;;;;;14.40;39.50;;;12.71;43.78;101636.28;12255283;19;19918;-85
2023/04/06 17:43:54;;;;;;;;;;;14.10;39.50;;;12.72;43.71;101653.72;12254260;19;20330;-85
2023/04/06 17:47:55;;;;;;;;;;;14.00;39.60;;;12.65;43.77;101647.09;12258883;19;19919;-85
2023/04/06 17:51:57;;;;;;;;;;;13.90;40.10;;;12.54;43.66;101646.78;12251737;19;19919;-86
2023/04/06 17:56:05;;;;;;;;;;;13.90;39.90;;;12.48;43.70;101649.69;12253412;19;19998;-86
2023/04/06 18:00:07;;;;;;;;;;;13.80;40.10;;;12.35;43.74;101646.81;12253513;19;19942;-86
2023/04/06 18:04:08;;;;;;;;;;;13.70;40.00;;;12.30;43.66;101657.50;12254542;19;19942;-86
2023/04/06 18:08:11;;;;;;;;;;;13.60;40.00;;;12.22;43.58;101654.38;12254123;19;19934;-85
2023/04/06 18:12:12;;;;;;;;;;;13.50;40.00;;;12.10;43.67;101658.44;12248515;19;20283;-85
2023/04/06 18:16:16;;;;;;;;;;;13.40;40.10;;;12.01;43.55;101661.47;12253270;19;20349;-86
2023/04/06 18:20:17;;;;;;;;;;;13.30;40.10;;;11.94;43.52;101663.53;12248107;19;19931;-85
2023/04/06 18:24:18;;;;;;;;;;;13.20;40.10;;;11.95;43.46;101682.69;12253247;19;19922;-85